»·PEaware :: N121CW L52-L88

N121CW :: L52-L88

FLIGHT INFORMATION

Flight Status: Arrived
Operator: Privately registered:
United States
More flights under this callsign
Pilot: Anonymous 41624 (41624)
Aircraft: CESSNA 172 SKYHAWK
(C172)
More flights by this aircraft type
Origin: L52 Oceano Co
United States
Destination: L88 New Cuyama
United States
More flights between these airports :: More routes between these airports
Route:
File this flight plan on PilotEdge
Remarks: First flight on this course
Altitude:
(Current/Filed)
7,500ft
Speed:
(Current/Filed)
100kts
Departed: 02-Oct-22 11:36 AM
Arrived: 02-Oct-22 12:12 PM
Distance/Time
Traveled:
47nm/0:36
Distance/Time
To Go:
Arrived

Flight Plot

Page will automatically refresh every two minutes.


Map Options




Map Legend


Flown Route
Filed Route
Departure Airport
Arrival Airport
Navaid (VOR, NDB)
Fix

Horizontal Profiles

Position Reports

Time Latitude Longitude Heading Altitude Ground
Speed
02-Oct-22 11:19 35.103806 -120.625103 216 16ft 0kts
02-Oct-22 11:20 35.103806 -120.625103 216 16ft 0kts
02-Oct-22 11:21 35.103806 -120.625103 216 16ft 0kts
02-Oct-22 11:22 35.103806 -120.625103 216 16ft 0kts
02-Oct-22 11:23 35.103806 -120.625103 216 16ft 0kts
02-Oct-22 11:24 35.103806 -120.625103 216 16ft 0kts
02-Oct-22 11:25 35.103806 -120.625103 216 16ft 0kts
02-Oct-22 11:26 35.103806 -120.625103 216 16ft 0kts
02-Oct-22 11:27 35.103806 -120.625103 216 16ft 0kts
02-Oct-22 11:28 35.103806 -120.625102 217 16ft 0kts
02-Oct-22 11:29 35.103806 -120.625102 216 16ft 0kts
02-Oct-22 11:30 35.103525 -120.625281 212 17ft 0kts
02-Oct-22 11:31 35.102070 -120.624282 122 21ft 22kts
02-Oct-22 11:32 35.099570 -120.619547 88 17ft 0kts
02-Oct-22 11:33 35.099570 -120.619547 88 17ft 0kts
02-Oct-22 11:34 35.100019 -120.619522 314 16ft 9kts
02-Oct-22 11:35 35.109096 -120.635174 338 565ft 74kts
02-Oct-22 11:36 35.127855 -120.621334 61 1433ft 87kts
02-Oct-22 11:37 35.122626 -120.593160 126 2360ft 86kts
02-Oct-22 11:38 35.106343 -120.573602 112 3192ft 88kts
02-Oct-22 11:39 35.103229 -120.544048 83 4002ft 89kts
02-Oct-22 11:40 35.105448 -120.513976 93 4820ft 90kts
02-Oct-22 11:41 35.105334 -120.483504 87 5585ft 86kts
02-Oct-22 11:42 35.106495 -120.455015 87 6311ft 82kts
02-Oct-22 11:43 35.107616 -120.427192 87 6963ft 81kts
02-Oct-22 11:44 35.108729 -120.399374 88 7423ft 93kts
02-Oct-22 11:45 35.110288 -120.361500 87 7429ft 121kts
02-Oct-22 11:46 35.111935 -120.322264 87 7417ft 113kts
02-Oct-22 11:47 35.113585 -120.283163 87 7424ft 116kts
02-Oct-22 11:48 35.115236 -120.244063 89 7422ft 114kts
02-Oct-22 11:49 35.116332 -120.204861 88 7425ft 115kts
02-Oct-22 11:50 35.114956 -120.166319 112 7421ft 114kts
02-Oct-22 11:51 35.103735 -120.130332 100 7423ft 115kts
02-Oct-22 11:52 35.098536 -120.091712 99 7417ft 116kts
02-Oct-22 11:53 35.095803 -120.052800 83 7403ft 114kts
02-Oct-22 11:54 35.090532 -120.016690 119 7424ft 113kts
02-Oct-22 11:55 35.075328 -119.982667 120 7424ft 115kts
02-Oct-22 11:56 35.059596 -119.948037 120 7305ft 122kts
02-Oct-22 11:57 35.043050 -119.911667 120 6811ft 123kts
02-Oct-22 11:58 35.026134 -119.874520 120 5921ft 125kts
02-Oct-22 11:59 35.009453 -119.837907 120 5026ft 123kts
02-Oct-22 12:00 34.992659 -119.801079 120 4128ft 121kts
02-Oct-22 12:01 34.976316 -119.765247 120 3218ft 121kts
02-Oct-22 12:02 34.961983 -119.732310 121 3058ft 106kts
02-Oct-22 12:03 34.947998 -119.700432 118 2948ft 104kts
02-Oct-22 12:04 34.929609 -119.687875 200 3503ft 79kts
02-Oct-22 12:05 34.937049 -119.689336 99 3693ft 117kts
02-Oct-22 12:06 34.932016 -119.661971 342 3301ft 96kts
02-Oct-22 12:07 34.941749 -119.690053 295 2510ft 89kts
02-Oct-22 12:08 34.937376 -119.710402 165 3168ft 105kts
02-Oct-22 12:09 34.925626 -119.679047 109 3166ft 92kts
02-Oct-22 12:10 34.934449 -119.672624 298 2495ft 79kts
02-Oct-22 12:11 34.940462 -119.686895 291 2167ft 13kts
02-Oct-22 12:12 34.942541 -119.691187 333 2150ft 8kts
02-Oct-22 12:13 34.942706 -119.691250 3 2150ft 0kts
02-Oct-22 12:14 34.943574 -119.691005 303 2149ft 0kts
02-Oct-22 12:15 34.943574 -119.691005 303 2149ft 0kts
02-Oct-22 12:16 34.943574 -119.691005 303 2149ft 0kts
02-Oct-22 12:17 34.943574 -119.691005 303 2149ft 0kts
02-Oct-22 12:18 34.943574 -119.691005 303 2149ft 0kts
02-Oct-22 12:19 34.943574 -119.691005 303 2149ft 0kts
02-Oct-22 12:20 34.943574 -119.691005 303 2149ft 0kts
02-Oct-22 12:21 34.943574 -119.691005 303 2149ft 0kts
02-Oct-22 12:22 34.943574 -119.691005 303 2149ft 0kts
02-Oct-22 12:23 34.943574 -119.691005 303 2149ft 0kts
02-Oct-22 12:24 34.943574 -119.691005 303 2149ft 0kts
02-Oct-22 12:25 34.943574 -119.691005 303 2149ft 0kts

Navigation Log

Ident Type
Flight plan parsing failed, navigation log unavailable